createdAt,value
2019-04-03T00:02:08.362Z,12.20
2019-04-03T00:04:38.622Z,12.14
2019-04-03T00:07:09.088Z,12.13
2019-04-03T00:09:39.664Z,12.15
2019-04-03T00:12:11.616Z,12.14
2019-04-03T00:14:43.136Z,12.15
2019-04-03T00:17:15.022Z,12.15
2019-04-03T00:19:45.803Z,12.15
2019-04-03T00:22:17.577Z,12.13
2019-04-03T00:24:47.884Z,12.14
2019-04-03T00:27:18.210Z,12.10
2019-04-03T00:29:48.535Z,12.06
2019-04-03T00:32:18.776Z,12.13
2019-04-03T00:34:49.027Z,12.17
2019-04-03T00:37:19.267Z,11.94
2019-04-03T00:39:49.746Z,11.94
2019-04-03T00:42:21.086Z,11.88
2019-04-03T00:44:51.265Z,11.86
2019-04-03T00:47:21.535Z,12.09
2019-04-03T00:49:51.945Z,11.89
2019-04-03T00:52:22.202Z,11.97
2019-04-03T00:54:52.406Z,11.97
2019-04-03T00:57:22.819Z,11.97
2019-04-03T00:59:53.077Z,11.94
2019-04-03T01:02:23.294Z,11.76
2019-04-03T01:04:53.560Z,11.76
2019-04-03T01:07:23.931Z,11.94
2019-04-03T01:09:55.327Z,11.57
2019-04-03T01:12:25.678Z,11.57
2019-04-03T01:14:56.045Z,11.54
2019-04-03T01:17:26.257Z,11.53
2019-04-03T01:19:56.476Z,11.53
2019-04-03T01:22:26.741Z,11.34
2019-04-03T01:24:56.931Z,11.38
2019-04-03T01:27:27.185Z,11.47
2019-04-03T01:29:57.420Z,11.42
2019-04-03T01:32:27.626Z,11.19
2019-04-03T01:34:59.024Z,11.05
2019-04-03T01:37:29.270Z,11.15
2019-04-03T01:39:59.485Z,11.33
2019-04-03T01:42:29.874Z,11.18
2019-04-03T01:45:00.131Z,11.18
2019-04-03T01:47:30.327Z,11.00
2019-04-03T01:50:00.537Z,11.04
2019-04-03T01:52:31.780Z,10.91
2019-04-03T01:55:04.356Z,11.09
2019-04-03T01:57:36.790Z,11.13
2019-04-03T02:00:08.318Z,11.10
2019-04-03T02:02:39.258Z,11.06
2019-04-03T02:05:12.149Z,11.10
2019-04-03T02:07:44.201Z,11.08
2019-04-03T02:10:19.185Z,11.18
2019-04-03T02:12:51.232Z,11.20
2019-04-03T02:15:22.267Z,11.21
2019-04-03T02:17:54.991Z,11.17
2019-04-03T02:20:26.708Z,11.15
2019-04-03T02:22:59.289Z,11.11
2019-04-03T02:25:31.563Z,11.16
2019-04-03T02:28:04.051Z,11.12
2019-04-03T02:30:34.039Z,11.17
2019-04-03T02:33:04.300Z,11.14
2019-04-03T02:35:34.498Z,11.04
2019-04-03T02:38:04.867Z,10.99
2019-04-03T02:40:35.248Z,10.94
2019-04-03T02:43:05.976Z,10.89
2019-04-03T02:45:36.151Z,10.93
2019-04-03T02:48:06.705Z,10.86
2019-04-03T02:50:37.709Z,10.88
2019-04-03T02:53:08.257Z,10.86
2019-04-03T02:55:39.775Z,10.89
2019-04-03T02:58:10.659Z,10.89
2019-04-03T03:00:40.929Z,10.93
2019-04-03T03:03:11.530Z,11.00
2019-04-03T03:05:41.927Z,11.01
2019-04-03T03:08:12.130Z,11.06
2019-04-03T03:10:43.470Z,11.05
2019-04-03T03:13:13.917Z,11.02
2019-04-03T03:15:45.345Z,10.97
2019-04-03T03:18:16.016Z,10.94
2019-04-03T03:20:46.569Z,10.90
2019-04-03T03:23:17.064Z,10.91
2019-04-03T03:25:49.549Z,10.85
2019-04-03T03:28:19.832Z,10.83
2019-04-03T03:30:57.809Z,10.79
2019-04-03T03:33:32.104Z,10.76
2019-04-03T03:35:55.297Z,10.70
2019-04-03T03:38:28.182Z,10.61
2019-04-03T03:40:59.094Z,10.59
2019-04-03T03:43:29.476Z,10.54
2019-04-03T03:46:00.163Z,10.48
2019-04-03T03:48:30.991Z,10.45
2019-04-03T03:51:04.144Z,10.39
2019-04-03T03:53:34.974Z,10.49
2019-04-03T03:56:05.470Z,10.35
2019-04-03T03:58:35.847Z,10.23
2019-04-03T04:01:06.341Z,10.15
2019-04-03T04:03:40.359Z,10.10
2019-04-03T04:06:14.836Z,10.12
2019-04-03T04:08:45.776Z,10.24
2019-04-03T04:11:16.760Z,10.28
2019-04-03T04:13:48.447Z,10.26
2019-04-03T04:16:19.632Z,10.16
2019-04-03T04:18:50.452Z,10.06
2019-04-03T04:21:21.103Z,9.99
2019-04-03T04:23:55.158Z,10.04
2019-04-03T04:26:23.507Z,10.07
2019-04-03T04:28:53.866Z,10.03
2019-04-03T04:31:24.115Z,9.94
2019-04-03T04:33:54.341Z,9.97
2019-04-03T04:36:24.900Z,9.96
2019-04-03T04:38:57.354Z,9.96
2019-04-03T04:41:27.217Z,9.94
2019-04-03T04:43:57.647Z,10.10
2019-04-03T04:46:28.007Z,10.04
2019-04-03T04:48:58.382Z,10.03
2019-04-03T04:51:28.571Z,9.98
2019-04-03T04:53:59.481Z,10.04
2019-04-03T04:56:30.440Z,10.04
2019-04-03T04:59:01.174Z,10.03
2019-04-03T05:01:31.477Z,10.02
2019-04-03T05:04:01.795Z,10.13
2019-04-03T05:06:32.132Z,10.15
2019-04-03T05:09:03.871Z,10.35
2019-04-03T05:11:34.627Z,10.41
2019-04-03T05:14:06.242Z,10.42
2019-04-03T05:16:36.781Z,10.52
2019-04-03T05:19:10.455Z,10.67
2019-04-03T05:21:39.852Z,10.68
2019-04-03T05:24:12.834Z,10.75
2019-04-03T05:26:41.927Z,10.98
2019-04-03T05:29:12.121Z,11.17
2019-04-03T05:31:42.733Z,11.06
2019-04-03T05:34:14.130Z,11.23
2019-04-03T05:36:44.319Z,11.69
2019-04-03T05:39:14.746Z,13.02
2019-04-03T05:41:45.249Z,12.85
2019-04-03T05:44:16.070Z,13.64
2019-04-03T05:46:46.391Z,13.93
2019-04-03T05:49:18.477Z,13.39
2019-04-03T05:51:49.529Z,13.27
2019-04-03T05:54:20.358Z,12.97
2019-04-03T05:56:51.782Z,12.73
2019-04-03T05:59:22.383Z,12.93
2019-04-03T06:01:52.861Z,13.00
2019-04-03T06:04:23.064Z,13.61
2019-04-03T06:06:54.581Z,13.42
2019-04-03T06:09:24.898Z,13.04
2019-04-03T06:11:55.899Z,13.21
2019-04-03T06:14:26.282Z,13.07
2019-04-03T06:16:56.853Z,13.75
2019-04-03T06:19:28.082Z,14.08
2019-04-03T06:21:58.818Z,13.35
2019-04-03T06:24:29.247Z,13.81
2019-04-03T06:26:59.709Z,12.97
2019-04-03T06:29:30.283Z,13.63
2019-04-03T06:32:07.566Z,12.49
2019-04-03T06:34:40.538Z,12.79
2019-04-03T06:37:11.942Z,13.01
2019-04-03T06:39:42.284Z,12.94
2019-04-03T06:42:13.262Z,13.26
2019-04-03T06:44:44.367Z,13.93
2019-04-03T06:47:14.964Z,14.31
2019-04-03T06:49:45.301Z,14.11
2019-04-03T06:52:15.638Z,13.99
2019-04-03T06:54:45.858Z,14.29
2019-04-03T06:57:16.447Z,14.04
2019-04-03T06:59:49.252Z,14.74
2019-04-03T07:02:20.678Z,14.67
2019-04-03T07:04:53.532Z,14.96
2019-04-03T07:07:33.540Z,15.16
2019-04-03T07:09:55.949Z,16.56
2019-04-03T07:12:26.912Z,16.35
2019-04-03T07:14:59.792Z,16.53
2019-04-03T07:17:32.125Z,17.08
2019-04-03T07:20:12.475Z,17.08
2019-04-03T07:22:34.386Z,18.10
2019-04-03T07:25:06.183Z,16.97
2019-04-03T07:27:37.473Z,16.64
2019-04-03T07:30:10.423Z,16.77
2019-04-03T07:32:40.783Z,16.41
2019-04-03T07:35:11.140Z,17.15
2019-04-03T07:37:41.585Z,19.32
2019-04-03T07:40:12.619Z,19.14
2019-04-03T07:42:43.340Z,18.43
2019-04-03T07:45:15.190Z,17.82
2019-04-03T07:47:45.693Z,18.05
2019-04-03T07:50:17.858Z,17.21
2019-04-03T07:52:48.938Z,19.59
2019-04-03T07:55:20.597Z,18.83
2019-04-03T07:57:54.837Z,18.15
2019-04-03T08:00:25.111Z,19.47
2019-04-03T08:02:55.738Z,19.05
2019-04-03T08:05:26.328Z,19.54
2019-04-03T08:07:56.635Z,20.85
2019-04-03T08:10:28.006Z,19.39
2019-04-03T08:12:59.910Z,18.40
2019-04-03T08:15:31.979Z,18.41
2019-04-03T08:18:02.304Z,19.04
2019-04-03T08:20:32.633Z,17.93
2019-04-03T08:23:05.074Z,18.77
2019-04-03T08:25:35.089Z,19.23
2019-04-03T08:28:05.660Z,21.24
2019-04-03T08:30:38.533Z,20.57
2019-04-03T08:33:15.929Z,19.33
2019-04-03T08:35:40.563Z,18.84
2019-04-03T08:38:12.922Z,20.97
2019-04-03T08:40:43.549Z,20.92
2019-04-03T08:43:14.212Z,19.55
2019-04-03T08:45:46.234Z,18.18
2019-04-03T08:48:17.628Z,17.35
2019-04-03T08:50:49.822Z,16.92
2019-04-03T08:53:20.197Z,16.21
2019-04-03T08:55:50.715Z,17.38
2019-04-03T08:58:22.102Z,18.02
2019-04-03T09:00:53.141Z,17.17
2019-04-03T09:03:23.735Z,17.93
2019-04-03T09:05:55.765Z,18.75
2019-04-03T09:08:27.150Z,17.31
2019-04-03T09:10:57.534Z,16.74
2019-04-03T09:13:28.116Z,16.42
2019-04-03T09:15:59.714Z,17.18
2019-04-03T09:18:33.087Z,18.08
2019-04-03T09:21:03.761Z,17.31
2019-04-03T09:23:34.109Z,17.70
2019-04-03T09:26:04.493Z,18.35
2019-04-03T09:28:36.005Z,18.58
2019-04-03T09:31:06.353Z,17.88
2019-04-03T09:33:36.618Z,18.50
2019-04-03T09:36:06.931Z,18.17
2019-04-03T09:38:37.563Z,17.81
2019-04-03T09:41:07.934Z,17.80
2019-04-03T09:43:39.914Z,18.32
2019-04-03T09:46:11.345Z,18.15
2019-04-03T09:48:41.772Z,18.54
2019-04-03T09:51:13.132Z,17.56
2019-04-03T09:53:43.369Z,17.93
2019-04-03T09:56:13.535Z,18.32
2019-04-03T09:58:43.999Z,17.19
2019-04-03T10:01:18.309Z,17.06
2019-04-03T10:03:47.083Z,17.07
2019-04-03T10:06:17.627Z,17.53
2019-04-03T10:08:48.100Z,17.34
2019-04-03T10:11:20.477Z,18.07
2019-04-03T10:13:51.543Z,17.98
2019-04-03T10:16:22.019Z,18.54
2019-04-03T10:18:52.551Z,18.83
2019-04-03T10:21:22.805Z,19.39
2019-04-03T10:23:57.714Z,20.06
2019-04-03T10:26:30.976Z,20.23
2019-04-03T10:29:01.430Z,19.04
2019-04-03T10:31:31.686Z,19.14
2019-04-03T10:34:03.138Z,20.18
2019-04-03T10:36:34.111Z,20.03
2019-04-03T10:39:06.128Z,18.19
2019-04-03T10:41:36.329Z,19.86
2019-04-03T10:44:09.297Z,19.23
2019-04-03T10:46:38.859Z,20.07
2019-04-03T10:49:09.468Z,19.24
2019-04-03T10:51:41.609Z,19.93
2019-04-03T10:54:12.187Z,20.22
2019-04-03T10:56:42.496Z,20.10
2019-04-03T10:59:13.886Z,17.91
2019-04-03T11:01:44.807Z,19.54
2019-04-03T11:04:15.138Z,20.35
2019-04-03T11:06:45.411Z,21.05
2019-04-03T11:09:15.862Z,20.35
2019-04-03T11:11:46.573Z,20.35
2019-04-03T11:14:18.691Z,20.04
2019-04-03T11:16:49.705Z,19.85
2019-04-03T11:19:20.367Z,20.00
2019-04-03T11:21:52.426Z,19.59
2019-04-03T11:24:22.648Z,19.25
2019-04-03T11:26:54.013Z,20.32
2019-04-03T11:29:24.249Z,20.10
2019-04-03T11:31:54.588Z,19.75
2019-04-03T11:34:25.121Z,19.70
2019-04-03T11:36:55.488Z,19.12
2019-04-03T11:39:25.914Z,18.29
2019-04-03T11:41:56.509Z,18.13
2019-04-03T11:44:29.954Z,18.98
2019-04-03T11:47:00.375Z,19.16
2019-04-03T11:49:30.907Z,19.19
2019-04-03T11:52:01.979Z,19.31
2019-04-03T11:54:32.445Z,19.54
2019-04-03T11:57:03.510Z,18.85
2019-04-03T11:59:35.073Z,19.48
2019-04-03T12:02:07.435Z,20.38
2019-04-03T12:04:40.226Z,20.92
2019-04-03T12:07:12.214Z,20.67
2019-04-03T12:09:42.748Z,20.31
2019-04-03T12:12:13.014Z,19.28
2019-04-03T12:14:44.479Z,19.70
2019-04-03T12:17:15.217Z,19.52
2019-04-03T12:19:46.135Z,19.91
2019-04-03T12:22:16.639Z,20.09
2019-04-03T12:24:48.742Z,19.74
2019-04-03T12:27:20.885Z,19.84
2019-04-03T12:29:51.978Z,19.55
2019-04-03T12:32:23.185Z,19.68
2019-04-03T12:34:53.485Z,20.32
2019-04-03T12:37:25.013Z,20.04
2019-04-03T12:39:58.259Z,19.72
2019-04-03T12:42:28.854Z,20.04
2019-04-03T12:44:59.795Z,20.24
2019-04-03T12:47:30.379Z,19.93
2019-04-03T12:50:01.117Z,19.87
2019-04-03T12:52:31.338Z,20.08
2019-04-03T12:55:01.862Z,19.93
2019-04-03T12:57:33.750Z,19.73
2019-04-03T13:00:05.190Z,20.33
2019-04-03T13:02:35.720Z,20.00
2019-04-03T13:05:07.746Z,20.48
2019-04-03T13:07:38.402Z,20.45
2019-04-03T13:10:11.080Z,20.03
2019-04-03T13:12:41.565Z,19.31
2019-04-03T13:15:12.748Z,20.09
2019-04-03T13:17:44.291Z,20.55
2019-04-03T13:20:15.676Z,19.96
2019-04-03T13:22:46.216Z,19.23
2019-04-03T13:25:20.241Z,19.18
2019-04-03T13:27:48.493Z,18.55
2019-04-03T13:30:18.929Z,19.36
2019-04-03T13:32:58.387Z,19.61
2019-04-03T13:35:21.240Z,19.56
2019-04-03T13:37:54.382Z,19.44
2019-04-03T13:40:23.841Z,19.60
2019-04-03T13:42:54.083Z,19.53
2019-04-03T13:45:24.806Z,19.60
2019-04-03T13:47:56.518Z,19.96
2019-04-03T13:50:26.982Z,20.27
2019-04-03T13:52:58.577Z,19.90
2019-04-03T13:55:32.885Z,19.84
2019-04-03T13:58:01.227Z,19.96
2019-04-03T14:00:32.852Z,19.55
2019-04-03T14:03:03.870Z,19.20
2019-04-03T14:05:36.115Z,19.28
2019-04-03T14:08:07.419Z,19.97
2019-04-03T14:10:38.277Z,19.27
2019-04-03T14:13:11.359Z,19.36
2019-04-03T14:15:42.097Z,19.75
2019-04-03T14:18:13.566Z,19.33
2019-04-03T14:20:44.920Z,19.50
2019-04-03T14:23:15.241Z,19.12
2019-04-03T14:25:46.032Z,19.16
2019-04-03T14:28:16.202Z,18.76
2019-04-03T14:30:46.407Z,19.02
2019-04-03T14:33:19.210Z,18.85
2019-04-03T14:35:53.984Z,18.88
2019-04-03T14:38:22.370Z,19.03
2019-04-03T14:40:52.824Z,19.20
2019-04-03T14:43:23.089Z,19.26
2019-04-03T14:45:53.767Z,19.03
2019-04-03T14:48:26.146Z,19.23
2019-04-03T14:50:56.043Z,18.97
2019-04-03T14:53:26.292Z,19.02
2019-04-03T14:55:58.175Z,19.16
2019-04-03T14:58:29.244Z,19.06
2019-04-03T15:00:59.719Z,19.40
2019-04-03T15:03:33.611Z,19.66
2019-04-03T15:06:03.594Z,19.53
2019-04-03T15:08:33.779Z,19.61
2019-04-03T15:11:04.468Z,19.47
2019-04-03T15:13:34.914Z,19.30
2019-04-03T15:16:05.760Z,19.38
2019-04-03T15:18:36.179Z,19.62
2019-04-03T15:21:06.704Z,19.07
2019-04-03T15:23:40.770Z,19.14
2019-04-03T15:26:09.664Z,19.21
2019-04-03T15:28:39.881Z,19.05
2019-04-03T15:31:10.095Z,19.32
2019-04-03T15:33:40.315Z,19.31
2019-04-03T15:36:10.692Z,19.30
2019-04-03T15:38:40.970Z,19.15
2019-04-03T15:41:12.528Z,19.04
2019-04-03T15:43:45.590Z,18.99
2019-04-03T15:46:15.203Z,19.19
2019-04-03T15:48:45.564Z,18.93
2019-04-03T15:51:16.677Z,19.01
2019-04-03T15:53:47.428Z,18.99
2019-04-03T15:56:18.961Z,18.89
2019-04-03T15:58:50.946Z,19.01
2019-04-03T16:01:21.207Z,18.89
2019-04-03T16:03:51.514Z,18.95
2019-04-03T16:06:21.729Z,18.76
2019-04-03T16:08:53.525Z,18.88
2019-04-03T16:11:24.120Z,18.93
2019-04-03T16:13:55.878Z,19.00
2019-04-03T16:19:43.339Z,18.65
2019-04-03T16:22:46.294Z,18.78
2019-04-03T16:25:17.711Z,18.67
2019-04-03T16:27:49.009Z,18.60
2019-04-03T16:30:21.176Z,18.54
2019-04-03T16:32:51.942Z,18.39
2019-04-03T16:35:22.966Z,18.40
2019-04-03T16:37:56.651Z,18.30
2019-04-03T16:40:25.825Z,18.32
2019-04-03T16:42:56.595Z,18.16
2019-04-03T16:45:27.087Z,18.10
2019-04-03T16:47:57.946Z,18.05
2019-04-03T16:50:28.712Z,18.00
2019-04-03T16:52:59.076Z,17.88
2019-04-03T16:55:29.342Z,17.76
2019-04-03T16:57:59.722Z,17.60
2019-04-03T17:00:29.947Z,17.42
2019-04-03T17:03:01.239Z,17.34
2019-04-03T17:05:31.551Z,17.31
2019-04-03T17:08:02.020Z,17.22
2019-04-03T17:10:32.364Z,17.06
2019-04-03T17:13:02.651Z,17.03
2019-04-03T17:15:52.640Z,16.94
2019-04-03T17:18:24.950Z,16.85
2019-04-03T17:20:56.951Z,16.66
2019-04-03T17:23:27.253Z,16.66
2019-04-03T17:25:57.939Z,16.60
2019-04-03T17:28:28.253Z,16.52
2019-04-03T17:30:58.611Z,16.54
2019-04-03T17:33:28.894Z,16.38
2019-04-03T17:35:59.125Z,16.34
2019-04-03T17:38:32.605Z,16.18
2019-04-03T17:41:01.446Z,16.09
2019-04-03T17:43:31.718Z,15.98
2019-04-03T17:46:02.088Z,15.87
2019-04-03T17:48:32.383Z,15.86
2019-04-03T17:51:03.805Z,15.83
2019-04-03T17:53:34.847Z,15.82
2019-04-03T17:56:12.351Z,15.80
2019-04-03T17:58:41.185Z,15.88
2019-04-03T18:01:11.419Z,15.82
2019-04-03T18:04:14.381Z,15.73
2019-04-03T18:07:30.439Z,15.65
2019-04-03T18:10:18.841Z,15.68
2019-04-03T18:12:50.159Z,15.66
2019-04-03T18:15:51.968Z,15.56
2019-04-03T18:18:28.520Z,15.53
2019-04-03T18:20:58.792Z,15.45
2019-04-03T18:23:31.813Z,15.31
2019-04-03T18:26:02.180Z,15.27
2019-04-03T18:28:33.931Z,15.26
2019-04-03T18:31:05.076Z,15.26
2019-04-03T18:33:35.326Z,15.24
2019-04-03T18:36:06.860Z,15.25
2019-04-03T18:38:39.532Z,15.36
2019-04-03T18:41:09.834Z,15.30
2019-04-03T18:43:40.128Z,15.31
2019-04-03T18:46:10.416Z,15.06
2019-04-03T18:48:52.587Z,15.07
2019-04-03T18:51:12.578Z,15.00
2019-04-03T18:53:42.914Z,14.95
2019-04-03T18:56:13.784Z,14.89
2019-04-03T18:58:44.999Z,14.88
2019-04-03T19:01:17.166Z,14.78
2019-04-03T19:03:48.026Z,14.75
2019-04-03T19:06:19.228Z,14.76
2019-04-03T19:08:50.106Z,14.61
2019-04-03T19:11:20.778Z,14.59
2019-04-03T19:13:51.069Z,14.62
2019-04-03T19:16:29.554Z,14.62
2019-04-03T19:18:54.254Z,14.65
2019-04-03T19:21:28.442Z,14.56
2019-04-03T19:23:56.844Z,14.62
2019-04-03T19:26:27.668Z,14.62
2019-04-03T19:28:57.926Z,14.53
2019-04-03T19:31:28.214Z,14.60
2019-04-03T19:33:58.413Z,14.58
2019-04-03T19:36:29.983Z,14.51
2019-04-03T19:39:00.649Z,14.50
2019-04-03T19:41:32.447Z,14.43
2019-04-03T19:44:02.718Z,14.44
2019-04-03T19:46:32.982Z,14.47
2019-04-03T19:49:03.237Z,14.30
2019-04-03T19:51:37.191Z,14.33
2019-04-03T19:54:06.521Z,14.24
2019-04-03T19:56:36.933Z,14.26
2019-04-03T19:59:07.412Z,14.24
2019-04-03T20:01:38.948Z,14.25
2019-04-03T20:04:09.924Z,14.28
2019-04-03T20:06:40.190Z,14.23
2019-04-03T20:09:10.895Z,14.16
2019-04-03T20:11:41.283Z,14.15
2019-04-03T20:14:12.100Z,14.16
2019-04-03T20:16:42.454Z,14.11
2019-04-03T20:19:13.121Z,14.08
2019-04-03T20:21:43.451Z,13.99
2019-04-03T20:24:13.686Z,13.98
2019-04-03T20:26:46.381Z,13.99
2019-04-03T20:29:16.173Z,14.02
2019-04-03T20:31:46.712Z,13.94
2019-04-03T20:34:16.966Z,13.88
2019-04-03T20:36:47.204Z,13.79
2019-04-03T20:39:17.791Z,13.77
2019-04-03T20:41:48.179Z,13.78
2019-04-03T20:44:18.382Z,13.75
2019-04-03T20:46:48.579Z,13.64
2019-04-03T20:49:18.880Z,13.68
2019-04-03T20:51:49.127Z,13.70
2019-04-03T20:54:21.383Z,13.69
2019-04-03T20:56:57.672Z,13.68
2019-04-03T20:59:23.249Z,13.70
2019-04-03T21:01:53.447Z,13.59
2019-04-03T21:04:23.765Z,13.52
2019-04-03T21:06:54.043Z,13.51
2019-04-03T21:09:24.229Z,13.46
2019-04-03T21:11:54.416Z,13.43
2019-04-03T21:14:26.253Z,13.46
2019-04-03T21:16:56.537Z,13.38
2019-04-03T21:19:27.073Z,13.38
2019-04-03T21:21:57.724Z,13.35
2019-04-03T21:24:29.219Z,13.29
2019-04-03T21:26:59.479Z,13.26
2019-04-03T21:29:29.670Z,13.24
2019-04-03T21:32:00.110Z,13.18
2019-04-03T21:34:32.452Z,13.23
2019-04-03T21:37:02.334Z,13.16
2019-04-03T21:39:33.887Z,13.15
2019-04-03T21:42:04.440Z,13.07
2019-04-03T21:44:34.701Z,13.12
2019-04-03T21:47:04.967Z,13.05
2019-04-03T21:49:35.167Z,12.98
2019-04-03T21:52:05.638Z,12.85
2019-04-03T21:54:35.903Z,12.89
2019-04-03T21:57:06.788Z,12.89
2019-04-03T21:59:37.102Z,12.85
2019-04-03T22:02:07.292Z,12.79
2019-04-03T22:04:37.528Z,12.71
2019-04-03T22:07:07.798Z,12.72
2019-04-03T22:09:38.122Z,12.74
2019-04-03T22:12:08.587Z,12.66
2019-04-03T22:14:38.892Z,12.62
2019-04-03T22:17:11.411Z,12.53
2019-04-03T22:19:42.043Z,12.53
2019-04-03T22:22:12.391Z,12.34
2019-04-03T22:24:42.605Z,12.36
2019-04-03T22:27:12.849Z,12.22
2019-04-03T22:29:43.092Z,12.38
2019-04-03T22:32:13.361Z,12.33
2019-04-03T22:34:43.598Z,12.32
2019-04-03T22:37:13.791Z,12.38
2019-04-03T22:39:44.026Z,12.24
2019-04-03T22:42:15.060Z,12.28
2019-04-03T22:44:47.661Z,12.32
2019-04-03T22:47:17.717Z,12.31
2019-04-03T22:49:48.305Z,12.29
2019-04-03T22:52:18.589Z,12.19
2019-04-03T22:54:48.872Z,12.13
2019-04-03T22:57:19.817Z,12.09
2019-04-03T22:59:50.465Z,12.12
2019-04-03T23:02:20.719Z,12.09
2019-04-03T23:04:50.936Z,12.06
2019-04-03T23:07:21.465Z,11.95
2019-04-03T23:09:51.759Z,11.95
2019-04-03T23:12:22.085Z,11.89
2019-04-03T23:14:52.428Z,11.82
2019-04-03T23:17:22.729Z,11.80
2019-04-03T23:19:53.717Z,11.82
2019-04-03T23:22:25.919Z,11.82
2019-04-03T23:24:56.034Z,11.79
2019-04-03T23:27:26.422Z,11.77
2019-04-03T23:29:56.815Z,11.77
2019-04-03T23:32:28.206Z,11.78
2019-04-03T23:34:58.481Z,11.68
2019-04-03T23:37:28.815Z,11.73
2019-04-03T23:40:01.045Z,11.69
2019-04-03T23:42:31.260Z,11.61
2019-04-03T23:45:01.622Z,11.63
2019-04-03T23:47:32.014Z,11.69
2019-04-03T23:50:02.353Z,11.68
2019-04-03T23:52:32.646Z,11.55
2019-04-03T23:55:04.822Z,11.42
2019-04-03T23:57:35.173Z,11.35
